Hamsfork, Wyoming
Current Conditions -  °F | °C
As of 1:55 PM on Thursday 23 Oct 2014 (Local Time) from KEMM Reporting Station
Clear Clear  
Wind Chill: 61°   Ceiling: Unl
Heat Index: 61°   Visibility: 10mi
Dew Point: 25°   Wind: 15mph
Humidity: 25%   Direction: 260°W
Pressure: 30.2"   Gusts: 20mph
Location:  41.8294°N, 110.31°W
Report Text: KEMM 231955Z AUTO 26013G17KT 10SM CLR 16/M04 A3020 RMK AO2
Loading
Personal Weather Stations






























Interactive Weather Map
Tropical Storm Tracking
New forecast layout! Learn more

10-Day Weather Forecast

Advertisements
Track Severe Weather on mobile